LYBE/BEG METAR and TAF weather

Enter ICAO airport designator
Station Type Date Time Source
LYBE METAR 2020/01/28 11:30 UTC NOAA

LYBE 281130Z 16005KT 8000 NSC 08/05 Q1010 NOSIG


Station Type Date Time Source
LYBE Decoded METAR 2020/01/28 11:30 UTC NOAA

Beograd / Surcin, Serbia and Montenegro (LYBE) 44-49N 020-17E 99M
Jan 28, 2020 - 06:30 AM EST / 2020.01.28 1130 UTC
Wind: from the SSE (160 degrees) at 6 MPH (5 KT):0
Visibility: 4 mile(s):0
Temperature: 46 F (8 C)
Dew Point: 41 F (5 C)
Relative Humidity: 81%
Pressure (altimeter): 29.83 in. Hg (1010 hPa)
ob: LYBE 281130Z 16005KT 8000 NSC 08/05 Q1010 NOSIG
cycle: 11

Station Type Date Time Source
LYBE TAF 2020/01/28 12:21 UTC NOAA

TAF LYBE 281100Z 2812/2912 20008KT 7000 SCT035 TX10/2813Z TN02/2906Z
TEMPO 2821/2903 32020G30KT 5000 SHRA SCT023TCU BKN030

Example: see airport list